Lakeland Linder Regional Airport Lakeland US
ICAO: KLAL
IATA: LAL
Category: Medium
Scheduled Services: No

Elevation: 142 ft
TransAlt. 18000 ft.

Airport Communications:
TAMPA APP/DEP:119.9
ATIS:118.025
CTAF:124.5
GND:121.4
ST PETERSBURG RDO:116
TWR:124.5
UNICOM:122.95

KLAL Zoom In..

Runways:

(A) RW 05 length 5005 ft width 150 ft
---- / hdg 49

(B) RW 09 length 8499 ft width 150 ft
ILS 110.10 / hdg 94

(C) RW 23 length 5005 ft width 150 ft
---- / hdg 229

(D) RW 27 length 8499 ft width 150 ft
---- / hdg 274

Location; KLAL
Day. 20 / Time. 16.50 Zulu
* Altimeter: 30.10
* Temperature: 22° c. 71.6°f.
* Wind from: 130° Speed 10 kn with Gusts up to 15 kn.
Dewpoint: 20° c.
Visibility: 10 Statute Miles.
Clouds: Broken 5000 ft.

KLAL 201650Z 13010G15KT 10SM BKN050 22/20 A3010


Wind From 130°
Speed 10 kn.

 
 
jpsmedia.com for Web Design SOUNDCLOUD worldairports.se 2018   terms of use